sensor_id;sensor_type;location;lat;lon;timestamp;P1;durP1;ratioP1;P2;durP2;ratioP2
8986;SDS011;4529;51.360;12.474;2023-01-04T00:04:34;6.07;;;3.47;;
8986;SDS011;4529;51.360;12.474;2023-01-04T00:09:38;3.70;;;3.40;;
8986;SDS011;4529;51.360;12.474;2023-01-04T00:14:42;6.93;;;3.47;;
8986;SDS011;4529;51.360;12.474;2023-01-04T00:19:46;6.33;;;3.50;;
8986;SDS011;4529;51.360;12.474;2023-01-04T00:24:49;3.70;;;3.40;;
8986;SDS011;4529;51.360;12.474;2023-01-04T00:29:53;6.13;;;3.57;;
8986;SDS011;4529;51.360;12.474;2023-01-04T00:34:56;5.37;;;3.57;;
8986;SDS011;4529;51.360;12.474;2023-01-04T00:40:01;5.07;;;4.20;;
8986;SDS011;4529;51.360;12.474;2023-01-04T00:45:05;3.67;;;3.37;;
8986;SDS011;4529;51.360;12.474;2023-01-04T00:50:11;3.97;;;3.57;;
8986;SDS011;4529;51.360;12.474;2023-01-04T00:55:15;7.30;;;4.13;;
8986;SDS011;4529;51.360;12.474;2023-01-04T01:00:19;4.97;;;4.10;;
8986;SDS011;4529;51.360;12.474;2023-01-04T01:05:23;6.40;;;4.10;;
8986;SDS011;4529;51.360;12.474;2023-01-04T01:10:27;4.53;;;3.90;;
8986;SDS011;4529;51.360;12.474;2023-01-04T01:15:33;4.77;;;3.93;;
8986;SDS011;4529;51.360;12.474;2023-01-04T01:20:39;6.03;;;4.40;;
8986;SDS011;4529;51.360;12.474;2023-01-04T01:25:38;5.20;;;4.20;;
8986;SDS011;4529;51.360;12.474;2023-01-04T01:30:42;4.60;;;4.20;;
8986;SDS011;4529;51.360;12.474;2023-01-04T01:35:46;4.53;;;4.07;;
8986;SDS011;4529;51.360;12.474;2023-01-04T01:40:50;5.50;;;4.10;;
8986;SDS011;4529;51.360;12.474;2023-01-04T01:45:53;5.90;;;3.77;;
8986;SDS011;4529;51.360;12.474;2023-01-04T01:50:58;4.73;;;4.27;;
8986;SDS011;4529;51.360;12.474;2023-01-04T01:56:03;4.40;;;3.83;;
8986;SDS011;4529;51.360;12.474;2023-01-04T02:01:07;6.90;;;4.23;;
8986;SDS011;4529;51.360;12.474;2023-01-04T02:06:18;5.77;;;4.00;;
8986;SDS011;4529;51.360;12.474;2023-01-04T02:11:25;4.23;;;3.83;;
8986;SDS011;4529;51.360;12.474;2023-01-04T02:22:01;5.10;;;4.03;;
8986;SDS011;4529;51.360;12.474;2023-01-04T02:33:10;4.47;;;3.80;;
8986;SDS011;4529;51.360;12.474;2023-01-04T02:38:48;4.37;;;3.77;;
8986;SDS011;4529;51.360;12.474;2023-01-04T02:44:04;4.40;;;3.53;;
8986;SDS011;4529;51.360;12.474;2023-01-04T02:49:13;3.70;;;3.40;;
8986;SDS011;4529;51.360;12.474;2023-01-04T02:54:17;4.00;;;3.60;;
8986;SDS011;4529;51.360;12.474;2023-01-04T02:59:32;6.40;;;3.53;;
8986;SDS011;4529;51.360;12.474;2023-01-04T03:15:38;4.23;;;3.40;;
8986;SDS011;4529;51.360;12.474;2023-01-04T03:20:42;4.60;;;3.60;;
8986;SDS011;4529;51.360;12.474;2023-01-04T03:25:51;4.63;;;3.40;;
8986;SDS011;4529;51.360;12.474;2023-01-04T03:30:55;4.40;;;3.43;;
8986;SDS011;4529;51.360;12.474;2023-01-04T03:41:25;8.83;;;3.70;;
8986;SDS011;4529;51.360;12.474;2023-01-04T03:51:33;4.80;;;3.83;;
8986;SDS011;4529;51.360;12.474;2023-01-04T03:56:36;4.93;;;3.50;;
8986;SDS011;4529;51.360;12.474;2023-01-04T04:01:40;3.80;;;3.47;;
8986;SDS011;4529;51.360;12.474;2023-01-04T04:06:43;4.60;;;3.43;;
8986;SDS011;4529;51.360;12.474;2023-01-04T04:11:47;4.30;;;3.40;;
8986;SDS011;4529;51.360;12.474;2023-01-04T04:16:51;7.00;;;3.40;;
8986;SDS011;4529;51.360;12.474;2023-01-04T04:21:58;4.10;;;3.43;;
8986;SDS011;4529;51.360;12.474;2023-01-04T04:27:02;4.37;;;3.50;;
8986;SDS011;4529;51.360;12.474;2023-01-04T04:32:05;5.20;;;3.30;;
8986;SDS011;4529;51.360;12.474;2023-01-04T04:37:09;4.87;;;3.40;;
8986;SDS011;4529;51.360;12.474;2023-01-04T04:42:13;3.53;;;3.23;;
8986;SDS011;4529;51.360;12.474;2023-01-04T04:47:17;5.33;;;3.53;;
8986;SDS011;4529;51.360;12.474;2023-01-04T04:52:21;4.97;;;3.17;;
8986;SDS011;4529;51.360;12.474;2023-01-04T04:57:24;3.30;;;3.00;;
8986;SDS011;4529;51.360;12.474;2023-01-04T05:02:28;4.20;;;2.83;;
8986;SDS011;4529;51.360;12.474;2023-01-04T05:07:31;3.83;;;2.40;;
8986;SDS011;4529;51.360;12.474;2023-01-04T05:12:35;3.17;;;2.83;;
8986;SDS011;4529;51.360;12.474;2023-01-04T05:17:38;2.73;;;2.50;;
8986;SDS011;4529;51.360;12.474;2023-01-04T05:22:42;3.20;;;2.90;;
8986;SDS011;4529;51.360;12.474;2023-01-04T05:27:46;2.77;;;2.53;;
8986;SDS011;4529;51.360;12.474;2023-01-04T05:32:50;2.83;;;2.60;;
8986;SDS011;4529;51.360;12.474;2023-01-04T05:37:54;3.10;;;2.80;;
8986;SDS011;4529;51.360;12.474;2023-01-04T05:42:58;3.97;;;2.90;;
8986;SDS011;4529;51.360;12.474;2023-01-04T05:48:03;5.37;;;3.10;;
8986;SDS011;4529;51.360;12.474;2023-01-04T05:53:06;3.17;;;2.87;;
8986;SDS011;4529;51.360;12.474;2023-01-04T05:58:10;3.83;;;3.20;;
8986;SDS011;4529;51.360;12.474;2023-01-04T06:03:14;3.40;;;3.10;;
8986;SDS011;4529;51.360;12.474;2023-01-04T06:08:17;4.93;;;3.50;;
8986;SDS011;4529;51.360;12.474;2023-01-04T06:13:21;4.40;;;3.27;;
8986;SDS011;4529;51.360;12.474;2023-01-04T06:18:25;3.17;;;2.87;;
8986;SDS011;4529;51.360;12.474;2023-01-04T06:23:29;3.50;;;3.20;;
8986;SDS011;4529;51.360;12.474;2023-01-04T06:28:32;4.53;;;3.60;;
8986;SDS011;4529;51.360;12.474;2023-01-04T06:33:36;3.93;;;3.50;;
8986;SDS011;4529;51.360;12.474;2023-01-04T06:38:39;6.03;;;3.60;;
8986;SDS011;4529;51.360;12.474;2023-01-04T06:43:44;5.97;;;3.77;;
8986;SDS011;4529;51.360;12.474;2023-01-04T06:48:47;4.90;;;3.73;;
8986;SDS011;4529;51.360;12.474;2023-01-04T06:53:51;4.90;;;4.17;;
8986;SDS011;4529;51.360;12.474;2023-01-04T06:58:54;4.50;;;4.10;;
8986;SDS011;4529;51.360;12.474;2023-01-04T07:03:57;7.13;;;4.60;;
8986;SDS011;4529;51.360;12.474;2023-01-04T07:09:01;4.50;;;4.10;;
8986;SDS011;4529;51.360;12.474;2023-01-04T07:14:05;4.90;;;4.00;;
8986;SDS011;4529;51.360;12.474;2023-01-04T07:19:09;6.33;;;4.40;;
8986;SDS011;4529;51.360;12.474;2023-01-04T07:24:13;8.23;;;4.00;;
8986;SDS011;4529;51.360;12.474;2023-01-04T07:29:17;5.27;;;4.10;;
8986;SDS011;4529;51.360;12.474;2023-01-04T07:34:21;5.90;;;4.03;;
8986;SDS011;4529;51.360;12.474;2023-01-04T07:39:24;6.53;;;4.10;;
8986;SDS011;4529;51.360;12.474;2023-01-04T07:44:28;6.07;;;3.80;;
8986;SDS011;4529;51.360;12.474;2023-01-04T07:49:32;5.83;;;3.90;;
8986;SDS011;4529;51.360;12.474;2023-01-04T07:54:41;4.90;;;3.03;;
8986;SDS011;4529;51.360;12.474;2023-01-04T07:59:45;3.13;;;2.93;;
8986;SDS011;4529;51.360;12.474;2023-01-04T08:04:48;3.63;;;3.17;;
8986;SDS011;4529;51.360;12.474;2023-01-04T08:09:51;4.27;;;2.90;;
8986;SDS011;4529;51.360;12.474;2023-01-04T08:14:56;4.57;;;3.00;;
8986;SDS011;4529;51.360;12.474;2023-01-04T08:20:00;3.83;;;2.90;;
8986;SDS011;4529;51.360;12.474;2023-01-04T08:25:04;3.07;;;2.77;;
8986;SDS011;4529;51.360;12.474;2023-01-04T08:30:08;4.33;;;3.00;;
8986;SDS011;4529;51.360;12.474;2023-01-04T08:35:12;3.63;;;2.90;;
8986;SDS011;4529;51.360;12.474;2023-01-04T08:40:16;3.07;;;2.50;;
8986;SDS011;4529;51.360;12.474;2023-01-04T08:45:19;2.70;;;2.50;;
8986;SDS011;4529;51.360;12.474;2023-01-04T08:50:23;2.60;;;2.40;;
8986;SDS011;4529;51.360;12.474;2023-01-04T08:55:27;2.77;;;2.40;;
8986;SDS011;4529;51.360;12.474;2023-01-04T09:00:32;3.13;;;2.80;;
8986;SDS011;4529;51.360;12.474;2023-01-04T09:05:36;3.43;;;2.70;;
8986;SDS011;4529;51.360;12.474;2023-01-04T09:10:39;3.03;;;2.73;;
8986;SDS011;4529;51.360;12.474;2023-01-04T09:15:43;3.20;;;2.83;;
8986;SDS011;4529;51.360;12.474;2023-01-04T09:20:46;3.77;;;2.20;;
8986;SDS011;4529;51.360;12.474;2023-01-04T09:25:50;2.00;;;1.90;;
8986;SDS011;4529;51.360;12.474;2023-01-04T09:30:54;1.97;;;1.80;;
8986;SDS011;4529;51.360;12.474;2023-01-04T09:36:02;1.83;;;1.67;;
8986;SDS011;4529;51.360;12.474;2023-01-04T09:46:22;1.20;;;1.20;;
8986;SDS011;4529;51.360;12.474;2023-01-04T09:51:44;1.70;;;1.50;;
8986;SDS011;4529;51.360;12.474;2023-01-04T09:56:58;1.80;;;1.70;;
8986;SDS011;4529;51.360;12.474;2023-01-04T10:02:10;1.07;;;1.07;;
8986;SDS011;4529;51.360;12.474;2023-01-04T10:18:04;1.40;;;1.30;;
8986;SDS011;4529;51.360;12.474;2023-01-04T10:23:24;1.43;;;1.20;;
8986;SDS011;4529;51.360;12.474;2023-01-04T10:33:58;2.13;;;1.50;;
8986;SDS011;4529;51.360;12.474;2023-01-04T10:39:18;1.63;;;1.53;;
8986;SDS011;4529;51.360;12.474;2023-01-04T10:49:58;2.10;;;1.43;;
8986;SDS011;4529;51.360;12.474;2023-01-04T10:55:05;1.70;;;1.60;;
8986;SDS011;4529;51.360;12.474;2023-01-04T11:00:07;2.70;;;1.20;;
8986;SDS011;4529;51.360;12.474;2023-01-04T11:05:09;1.83;;;1.70;;
8986;SDS011;4529;51.360;12.474;2023-01-04T11:15:42;1.50;;;1.40;;
8986;SDS011;4529;51.360;12.474;2023-01-04T11:20:45;1.10;;;1.10;;
8986;SDS011;4529;51.360;12.474;2023-01-04T11:25:55;2.27;;;1.57;;
8986;SDS011;4529;51.360;12.474;2023-01-04T11:31:20;2.40;;;1.60;;
8986;SDS011;4529;51.360;12.474;2023-01-04T11:36:10;1.50;;;1.40;;
8986;SDS011;4529;51.360;12.474;2023-01-04T11:41:15;1.50;;;1.40;;
8986;SDS011;4529;51.360;12.474;2023-01-04T11:56:27;1.53;;;1.43;;
8986;SDS011;4529;51.360;12.474;2023-01-04T12:01:30;1.73;;;1.43;;
8986;SDS011;4529;51.360;12.474;2023-01-04T12:06:44;1.40;;;1.30;;
8986;SDS011;4529;51.360;12.474;2023-01-04T12:11:55;1.30;;;1.27;;
8986;SDS011;4529;51.360;12.474;2023-01-04T12:22:30;1.40;;;1.30;;
8986;SDS011;4529;51.360;12.474;2023-01-04T12:27:41;1.33;;;1.17;;
8986;SDS011;4529;51.360;12.474;2023-01-04T12:32:43;2.43;;;1.17;;
8986;SDS011;4529;51.360;12.474;2023-01-04T12:37:46;2.23;;;1.30;;
8986;SDS011;4529;51.360;12.474;2023-01-04T12:53:47;1.20;;;1.20;;
8986;SDS011;4529;51.360;12.474;2023-01-04T12:59:07;1.17;;;1.17;;
8986;SDS011;4529;51.360;12.474;2023-01-04T13:09:32;1.20;;;1.20;;
8986;SDS011;4529;51.360;12.474;2023-01-04T13:14:59;1.50;;;1.40;;
8986;SDS011;4529;51.360;12.474;2023-01-04T13:19:42;1.20;;;1.20;;
8986;SDS011;4529;51.360;12.474;2023-01-04T13:24:46;1.13;;;0.90;;
8986;SDS011;4529;51.360;12.474;2023-01-04T13:29:50;3.47;;;1.10;;
8986;SDS011;4529;51.360;12.474;2023-01-04T13:35:00;1.33;;;1.13;;
8986;SDS011;4529;51.360;12.474;2023-01-04T13:40:19;1.30;;;1.20;;
8986;SDS011;4529;51.360;12.474;2023-01-04T13:45:45;1.20;;;1.10;;
8986;SDS011;4529;51.360;12.474;2023-01-04T13:51:16;1.23;;;1.23;;
8986;SDS011;4529;51.360;12.474;2023-01-04T13:56:22;1.20;;;1.20;;
8986;SDS011;4529;51.360;12.474;2023-01-04T14:01:23;1.33;;;1.23;;
8986;SDS011;4529;51.360;12.474;2023-01-04T14:07:02;1.20;;;1.20;;
8986;SDS011;4529;51.360;12.474;2023-01-04T14:11:52;1.40;;;1.30;;
8986;SDS011;4529;51.360;12.474;2023-01-04T14:27:35;1.33;;;1.23;;
8986;SDS011;4529;51.360;12.474;2023-01-04T14:32:37;1.00;;;1.00;;
8986;SDS011;4529;51.360;12.474;2023-01-04T14:37:40;1.30;;;1.20;;
8986;SDS011;4529;51.360;12.474;2023-01-04T14:42:44;1.37;;;1.00;;
8986;SDS011;4529;51.360;12.474;2023-01-04T14:47:48;1.27;;;0.93;;
8986;SDS011;4529;51.360;12.474;2023-01-04T14:52:55;2.37;;;1.00;;
8986;SDS011;4529;51.360;12.474;2023-01-04T14:57:58;1.07;;;1.07;;
8986;SDS011;4529;51.360;12.474;2023-01-04T15:03:03;0.93;;;0.93;;
8986;SDS011;4529;51.360;12.474;2023-01-04T15:08:09;1.00;;;1.00;;
8986;SDS011;4529;51.360;12.474;2023-01-04T15:13:10;1.47;;;1.20;;
8986;SDS011;4529;51.360;12.474;2023-01-04T15:18:15;1.00;;;1.00;;
8986;SDS011;4529;51.360;12.474;2023-01-04T15:23:19;0.90;;;0.90;;
8986;SDS011;4529;51.360;12.474;2023-01-04T15:28:23;1.10;;;1.10;;
8986;SDS011;4529;51.360;12.474;2023-01-04T15:33:27;1.10;;;1.00;;
8986;SDS011;4529;51.360;12.474;2023-01-04T15:38:31;1.20;;;1.10;;
8986;SDS011;4529;51.360;12.474;2023-01-04T15:43:35;0.93;;;0.83;;
8986;SDS011;4529;51.360;12.474;2023-01-04T15:48:39;1.30;;;1.17;;
8986;SDS011;4529;51.360;12.474;2023-01-04T15:53:52;0.90;;;0.90;;
8986;SDS011;4529;51.360;12.474;2023-01-04T15:58:56;1.67;;;1.07;;
8986;SDS011;4529;51.360;12.474;2023-01-04T16:03:59;0.80;;;0.80;;
8986;SDS011;4529;51.360;12.474;2023-01-04T16:09:04;0.90;;;0.90;;
8986;SDS011;4529;51.360;12.474;2023-01-04T16:14:07;0.80;;;0.80;;
8986;SDS011;4529;51.360;12.474;2023-01-04T16:19:10;1.83;;;1.30;;
8986;SDS011;4529;51.360;12.474;2023-01-04T16:24:15;2.00;;;0.90;;
8986;SDS011;4529;51.360;12.474;2023-01-04T16:29:18;2.00;;;1.00;;
8986;SDS011;4529;51.360;12.474;2023-01-04T16:34:22;0.73;;;0.73;;
8986;SDS011;4529;51.360;12.474;2023-01-04T16:39:25;0.87;;;0.87;;
8986;SDS011;4529;51.360;12.474;2023-01-04T16:44:28;1.00;;;1.00;;
8986;SDS011;4529;51.360;12.474;2023-01-04T16:49:32;0.90;;;0.90;;
8986;SDS011;4529;51.360;12.474;2023-01-04T16:54:35;1.33;;;0.93;;
8986;SDS011;4529;51.360;12.474;2023-01-04T16:59:39;1.10;;;1.00;;
8986;SDS011;4529;51.360;12.474;2023-01-04T17:04:43;1.07;;;1.07;;
8986;SDS011;4529;51.360;12.474;2023-01-04T17:09:48;0.97;;;0.93;;
8986;SDS011;4529;51.360;12.474;2023-01-04T17:14:51;1.13;;;1.03;;
8986;SDS011;4529;51.360;12.474;2023-01-04T17:19:56;1.20;;;1.20;;
8986;SDS011;4529;51.360;12.474;2023-01-04T17:25:00;0.90;;;0.90;;
8986;SDS011;4529;51.360;12.474;2023-01-04T17:30:04;1.40;;;1.30;;
8986;SDS011;4529;51.360;12.474;2023-01-04T17:35:08;1.00;;;1.00;;
8986;SDS011;4529;51.360;12.474;2023-01-04T17:40:12;0.90;;;0.90;;
8986;SDS011;4529;51.360;12.474;2023-01-04T17:45:16;0.90;;;0.90;;
8986;SDS011;4529;51.360;12.474;2023-01-04T17:50:20;1.30;;;1.20;;
8986;SDS011;4529;51.360;12.474;2023-01-04T17:55:25;1.07;;;0.80;;
8986;SDS011;4529;51.360;12.474;2023-01-04T18:00:29;1.10;;;0.87;;
8986;SDS011;4529;51.360;12.474;2023-01-04T18:05:33;0.73;;;0.73;;
8986;SDS011;4529;51.360;12.474;2023-01-04T18:10:37;0.80;;;0.80;;
8986;SDS011;4529;51.360;12.474;2023-01-04T18:15:41;0.90;;;0.90;;
8986;SDS011;4529;51.360;12.474;2023-01-04T18:20:45;0.97;;;0.90;;
8986;SDS011;4529;51.360;12.474;2023-01-04T18:25:49;0.90;;;0.90;;
8986;SDS011;4529;51.360;12.474;2023-01-04T18:30:54;0.80;;;0.80;;
8986;SDS011;4529;51.360;12.474;2023-01-04T18:36:01;0.60;;;0.60;;
8986;SDS011;4529;51.360;12.474;2023-01-04T18:41:05;0.80;;;0.80;;
8986;SDS011;4529;51.360;12.474;2023-01-04T18:46:10;0.97;;;0.87;;
8986;SDS011;4529;51.360;12.474;2023-01-04T18:51:14;0.80;;;0.80;;
8986;SDS011;4529;51.360;12.474;2023-01-04T18:56:17;2.40;;;0.80;;
8986;SDS011;4529;51.360;12.474;2023-01-04T19:01:21;0.63;;;0.63;;
8986;SDS011;4529;51.360;12.474;2023-01-04T19:06:24;0.80;;;0.80;;
8986;SDS011;4529;51.360;12.474;2023-01-04T19:11:28;0.87;;;0.67;;
8986;SDS011;4529;51.360;12.474;2023-01-04T19:16:33;0.80;;;0.80;;
8986;SDS011;4529;51.360;12.474;2023-01-04T19:21:42;0.70;;;0.70;;
8986;SDS011;4529;51.360;12.474;2023-01-04T19:26:45;0.67;;;0.67;;
8986;SDS011;4529;51.360;12.474;2023-01-04T19:31:48;0.80;;;0.80;;
8986;SDS011;4529;51.360;12.474;2023-01-04T19:36:52;0.57;;;0.50;;
8986;SDS011;4529;51.360;12.474;2023-01-04T19:41:55;0.70;;;0.70;;
8986;SDS011;4529;51.360;12.474;2023-01-04T19:47:00;3.93;;;1.70;;
8986;SDS011;4529;51.360;12.474;2023-01-04T19:52:04;1.80;;;1.30;;
8986;SDS011;4529;51.360;12.474;2023-01-04T19:57:07;1.00;;;1.00;;
8986;SDS011;4529;51.360;12.474;2023-01-04T20:02:11;1.20;;;1.10;;
8986;SDS011;4529;51.360;12.474;2023-01-04T20:07:14;0.90;;;0.90;;
8986;SDS011;4529;51.360;12.474;2023-01-04T20:12:18;0.90;;;0.90;;
8986;SDS011;4529;51.360;12.474;2023-01-04T20:17:22;1.10;;;1.00;;
8986;SDS011;4529;51.360;12.474;2023-01-04T20:22:33;1.00;;;0.93;;
8986;SDS011;4529;51.360;12.474;2023-01-04T20:27:36;1.57;;;1.10;;
8986;SDS011;4529;51.360;12.474;2023-01-04T20:32:40;1.27;;;1.00;;
8986;SDS011;4529;51.360;12.474;2023-01-04T20:37:43;0.90;;;0.90;;
8986;SDS011;4529;51.360;12.474;2023-01-04T20:42:47;1.47;;;0.90;;
8986;SDS011;4529;51.360;12.474;2023-01-04T20:47:50;1.77;;;0.90;;
8986;SDS011;4529;51.360;12.474;2023-01-04T20:52:54;0.80;;;0.80;;
8986;SDS011;4529;51.360;12.474;2023-01-04T20:57:57;0.80;;;0.80;;
8986;SDS011;4529;51.360;12.474;2023-01-04T21:03:00;0.87;;;0.80;;
8986;SDS011;4529;51.360;12.474;2023-01-04T21:08:04;1.53;;;0.80;;
8986;SDS011;4529;51.360;12.474;2023-01-04T21:13:09;1.80;;;0.87;;
8986;SDS011;4529;51.360;12.474;2023-01-04T21:18:12;0.70;;;0.70;;
8986;SDS011;4529;51.360;12.474;2023-01-04T21:23:22;0.90;;;0.80;;
8986;SDS011;4529;51.360;12.474;2023-01-04T21:28:25;1.13;;;0.60;;
8986;SDS011;4529;51.360;12.474;2023-01-04T21:33:28;1.27;;;1.00;;
8986;SDS011;4529;51.360;12.474;2023-01-04T21:38:31;2.33;;;1.00;;
8986;SDS011;4529;51.360;12.474;2023-01-04T21:43:35;1.20;;;0.97;;
8986;SDS011;4529;51.360;12.474;2023-01-04T21:48:39;1.30;;;1.10;;
8986;SDS011;4529;51.360;12.474;2023-01-04T21:53:42;1.97;;;1.00;;
8986;SDS011;4529;51.360;12.474;2023-01-04T21:58:45;1.07;;;0.90;;
8986;SDS011;4529;51.360;12.474;2023-01-04T22:03:49;1.80;;;1.07;;
8986;SDS011;4529;51.360;12.474;2023-01-04T22:08:52;2.03;;;1.30;;
8986;SDS011;4529;51.360;12.474;2023-01-04T22:13:56;2.33;;;1.30;;
8986;SDS011;4529;51.360;12.474;2023-01-04T22:19:01;2.57;;;1.40;;
8986;SDS011;4529;51.360;12.474;2023-01-04T22:24:04;2.00;;;1.20;;
8986;SDS011;4529;51.360;12.474;2023-01-04T22:29:08;4.70;;;1.80;;
8986;SDS011;4529;51.360;12.474;2023-01-04T22:34:11;2.23;;;1.20;;
8986;SDS011;4529;51.360;12.474;2023-01-04T22:39:15;4.40;;;1.33;;
8986;SDS011;4529;51.360;12.474;2023-01-04T22:44:19;3.63;;;1.43;;
8986;SDS011;4529;51.360;12.474;2023-01-04T22:49:24;5.77;;;1.90;;
8986;SDS011;4529;51.360;12.474;2023-01-04T22:54:28;4.37;;;1.47;;
8986;SDS011;4529;51.360;12.474;2023-01-04T22:59:32;5.17;;;1.80;;
8986;SDS011;4529;51.360;12.474;2023-01-04T23:04:36;4.80;;;1.70;;
8986;SDS011;4529;51.360;12.474;2023-01-04T23:09:41;4.63;;;1.30;;
8986;SDS011;4529;51.360;12.474;2023-01-04T23:14:45;4.17;;;1.70;;
8986;SDS011;4529;51.360;12.474;2023-01-04T23:19:49;4.17;;;1.40;;
8986;SDS011;4529;51.360;12.474;2023-01-04T23:24:53;5.57;;;1.87;;
8986;SDS011;4529;51.360;12.474;2023-01-04T23:29:56;2.87;;;1.33;;
8986;SDS011;4529;51.360;12.474;2023-01-04T23:35:00;6.47;;;1.50;;
8986;SDS011;4529;51.360;12.474;2023-01-04T23:40:03;5.17;;;1.60;;
8986;SDS011;4529;51.360;12.474;2023-01-04T23:45:07;6.57;;;1.70;;
8986;SDS011;4529;51.360;12.474;2023-01-04T23:50:19;7.20;;;1.90;;
8986;SDS011;4529;51.360;12.474;2023-01-04T23:55:23;3.90;;;1.60;;
